sensor_id;sensor_type;location;lat;lon;timestamp;pressure;altitude;pressure_sealevel;temperature;humidity
57801;BME280;43627;42.728;23.256;2023-04-02T00:01:24;94109.72;;;6.47;100.00
57801;BME280;43627;42.728;23.256;2023-04-02T00:08:56;94088.31;;;6.58;100.00
57801;BME280;43627;42.728;23.256;2023-04-02T00:11:33;94100.16;;;6.70;100.00
57801;BME280;43627;42.728;23.256;2023-04-02T00:14:02;94108.13;;;6.82;100.00
57801;BME280;43627;42.728;23.256;2023-04-02T00:16:31;94109.16;;;6.85;100.00
57801;BME280;43627;42.728;23.256;2023-04-02T00:19:03;94111.84;;;6.85;100.00
57801;BME280;43627;42.728;23.256;2023-04-02T00:21:34;94115.78;;;6.84;100.00
57801;BME280;43627;42.728;23.256;2023-04-02T00:24:13;94112.09;;;6.96;98.10
57801;BME280;43627;42.728;23.256;2023-04-02T00:26:48;94103.06;;;6.99;97.51
57801;BME280;43627;42.728;23.256;2023-04-02T00:29:16;94095.22;;;7.01;98.42
57801;BME280;43627;42.728;23.256;2023-04-02T00:31:46;94096.81;;;6.84;98.78
57801;BME280;43627;42.728;23.256;2023-04-02T00:36:46;94094.31;;;6.62;100.00
57801;BME280;43627;42.728;23.256;2023-04-02T00:39:18;94091.91;;;6.73;99.15
57801;BME280;43627;42.728;23.256;2023-04-02T00:41:46;94092.75;;;6.79;98.85
57801;BME280;43627;42.728;23.256;2023-04-02T00:44:15;94101.16;;;6.81;98.21
57801;BME280;43627;42.728;23.256;2023-04-02T00:46:47;94096.50;;;6.82;96.07
57801;BME280;43627;42.728;23.256;2023-04-02T00:49:19;94099.31;;;6.97;94.43
57801;BME280;43627;42.728;23.256;2023-04-02T00:51:51;94094.34;;;6.95;92.78
57801;BME280;43627;42.728;23.256;2023-04-02T00:54:20;94105.00;;;6.99;94.21
57801;BME280;43627;42.728;23.256;2023-04-02T00:56:51;94105.50;;;6.88;96.41
57801;BME280;43627;42.728;23.256;2023-04-02T00:59:26;94110.34;;;6.84;96.57
57801;BME280;43627;42.728;23.256;2023-04-02T01:02:00;94118.03;;;6.85;97.12
57801;BME280;43627;42.728;23.256;2023-04-02T01:07:26;94110.94;;;6.88;97.51
57801;BME280;43627;42.728;23.256;2023-04-02T01:15:10;94111.34;;;6.53;100.00
57801;BME280;43627;42.728;23.256;2023-04-02T01:24:00;94095.38;;;5.95;100.00
57801;BME280;43627;42.728;23.256;2023-04-02T01:26:47;94122.13;;;6.11;100.00
57801;BME280;43627;42.728;23.256;2023-04-02T01:29:43;94114.59;;;6.06;100.00
57801;BME280;43627;42.728;23.256;2023-04-02T01:32:14;94118.50;;;6.05;100.00
57801;BME280;43627;42.728;23.256;2023-04-02T01:34:44;94108.91;;;5.95;100.00
57801;BME280;43627;42.728;23.256;2023-04-02T01:37:35;94122.13;;;5.93;100.00
57801;BME280;43627;42.728;23.256;2023-04-02T01:45:24;94126.94;;;5.70;100.00
57801;BME280;43627;42.728;23.256;2023-04-02T01:47:51;94128.88;;;5.52;100.00
57801;BME280;43627;42.728;23.256;2023-04-02T01:52:50;94129.38;;;5.19;100.00
57801;BME280;43627;42.728;23.256;2023-04-02T01:55:28;94119.16;;;5.05;100.00
57801;BME280;43627;42.728;23.256;2023-04-02T01:57:56;94117.47;;;4.98;100.00
57801;BME280;43627;42.728;23.256;2023-04-02T02:00:24;94108.78;;;4.94;100.00
57801;BME280;43627;42.728;23.256;2023-04-02T02:02:53;94110.06;;;4.80;100.00
57801;BME280;43627;42.728;23.256;2023-04-02T02:05:21;94099.72;;;4.79;100.00
57801;BME280;43627;42.728;23.256;2023-04-02T02:07:50;94091.38;;;4.64;100.00
57801;BME280;43627;42.728;23.256;2023-04-02T02:10:28;94107.28;;;4.62;100.00
57801;BME280;43627;42.728;23.256;2023-04-02T02:12:56;94110.09;;;4.49;100.00
57801;BME280;43627;42.728;23.256;2023-04-02T02:15:25;94111.84;;;4.43;100.00
57801;BME280;43627;42.728;23.256;2023-04-02T02:17:58;94111.72;;;4.47;100.00
57801;BME280;43627;42.728;23.256;2023-04-02T02:20:26;94104.69;;;4.49;100.00
57801;BME280;43627;42.728;23.256;2023-04-02T02:22:54;94105.44;;;4.50;100.00
57801;BME280;43627;42.728;23.256;2023-04-02T02:25:26;94101.41;;;4.54;100.00
57801;BME280;43627;42.728;23.256;2023-04-02T02:30:51;94106.41;;;4.65;100.00
57801;BME280;43627;42.728;23.256;2023-04-02T02:33:38;94100.56;;;4.67;100.00
57801;BME280;43627;42.728;23.256;2023-04-02T02:36:27;94107.03;;;4.69;100.00
57801;BME280;43627;42.728;23.256;2023-04-02T02:39:43;94111.09;;;4.74;100.00
57801;BME280;43627;42.728;23.256;2023-04-02T02:42:26;94105.38;;;4.72;100.00
57801;BME280;43627;42.728;23.256;2023-04-02T02:44:55;94108.25;;;4.77;100.00
57801;BME280;43627;42.728;23.256;2023-04-02T02:47:26;94100.72;;;4.72;100.00
57801;BME280;43627;42.728;23.256;2023-04-02T02:49:56;94106.50;;;4.83;100.00
57801;BME280;43627;42.728;23.256;2023-04-02T02:52:27;94105.59;;;4.86;100.00
57801;BME280;43627;42.728;23.256;2023-04-02T02:55:33;94102.13;;;4.86;100.00
57801;BME280;43627;42.728;23.256;2023-04-02T02:57:57;94101.22;;;4.80;100.00
57801;BME280;43627;42.728;23.256;2023-04-02T03:00:25;94103.63;;;4.87;100.00
57801;BME280;43627;42.728;23.256;2023-04-02T03:02:53;94099.13;;;4.84;100.00
57801;BME280;43627;42.728;23.256;2023-04-02T03:05:25;94107.25;;;4.84;100.00
57801;BME280;43627;42.728;23.256;2023-04-02T03:07:55;94093.69;;;4.75;100.00
57801;BME280;43627;42.728;23.256;2023-04-02T03:13:07;94100.59;;;4.76;100.00
57801;BME280;43627;42.728;23.256;2023-04-02T03:18:45;94111.09;;;4.74;100.00
57801;BME280;43627;42.728;23.256;2023-04-02T03:23:45;94105.22;;;4.66;100.00
57801;BME280;43627;42.728;23.256;2023-04-02T03:26:23;94118.28;;;4.68;100.00
57801;BME280;43627;42.728;23.256;2023-04-02T03:29:00;94099.91;;;4.53;100.00
57801;BME280;43627;42.728;23.256;2023-04-02T03:31:39;94108.59;;;4.48;100.00
57801;BME280;43627;42.728;23.256;2023-04-02T03:34:20;94109.09;;;4.56;100.00
57801;BME280;43627;42.728;23.256;2023-04-02T03:37:01;94108.31;;;4.55;100.00
57801;BME280;43627;42.728;23.256;2023-04-02T03:39:35;94115.84;;;4.61;100.00
57801;BME280;43627;42.728;23.256;2023-04-02T03:42:18;94118.50;;;4.51;100.00
57801;BME280;43627;42.728;23.256;2023-04-02T03:47:33;94120.63;;;4.56;100.00
57801;BME280;43627;42.728;23.256;2023-04-02T03:52:46;94117.84;;;4.38;100.00
57801;BME280;43627;42.728;23.256;2023-04-02T03:55:20;94105.94;;;4.26;100.00
57801;BME280;43627;42.728;23.256;2023-04-02T04:00:42;94103.34;;;4.23;100.00
57801;BME280;43627;42.728;23.256;2023-04-02T04:03:19;94113.53;;;4.19;100.00
57801;BME280;43627;42.728;23.256;2023-04-02T04:05:58;94111.78;;;4.03;100.00
57801;BME280;43627;42.728;23.256;2023-04-02T04:08:33;94127.44;;;3.95;100.00
57801;BME280;43627;42.728;23.256;2023-04-02T04:11:09;94127.44;;;3.95;100.00
57801;BME280;43627;42.728;23.256;2023-04-02T04:13:45;94115.28;;;3.91;100.00
57801;BME280;43627;42.728;23.256;2023-04-02T04:16:25;94119.81;;;3.94;100.00
57801;BME280;43627;42.728;23.256;2023-04-02T04:19:24;94120.69;;;3.91;100.00
57801;BME280;43627;42.728;23.256;2023-04-02T04:22:16;94123.56;;;3.96;100.00
57801;BME280;43627;42.728;23.256;2023-04-02T04:24:45;94128.09;;;3.99;100.00
57801;BME280;43627;42.728;23.256;2023-04-02T04:30:27;94130.78;;;3.99;100.00
57801;BME280;43627;42.728;23.256;2023-04-02T04:33:01;94141.59;;;3.99;100.00
57801;BME280;43627;42.728;23.256;2023-04-02T04:35:36;94139.38;;;4.07;100.00
57801;BME280;43627;42.728;23.256;2023-04-02T04:38:12;94152.03;;;3.97;100.00
57801;BME280;43627;42.728;23.256;2023-04-02T04:40:54;94142.00;;;3.76;100.00
57801;BME280;43627;42.728;23.256;2023-04-02T04:43:39;94142.13;;;3.72;100.00
57801;BME280;43627;42.728;23.256;2023-04-02T04:46:21;94140.97;;;3.61;100.00
57801;BME280;43627;42.728;23.256;2023-04-02T04:49:13;94121.38;;;3.48;100.00
57801;BME280;43627;42.728;23.256;2023-04-02T04:51:51;94147.97;;;3.71;100.00
57801;BME280;43627;42.728;23.256;2023-04-02T04:54:24;94149.47;;;3.94;100.00
57801;BME280;43627;42.728;23.256;2023-04-02T04:56:58;94139.25;;;4.11;100.00
57801;BME280;43627;42.728;23.256;2023-04-02T04:59:34;94155.44;;;4.33;100.00
57801;BME280;43627;42.728;23.256;2023-04-02T05:02:18;94165.91;;;4.30;100.00
57801;BME280;43627;42.728;23.256;2023-04-02T05:04:50;94158.00;;;4.36;100.00
57801;BME280;43627;42.728;23.256;2023-04-02T05:07:29;94152.69;;;4.54;100.00
57801;BME280;43627;42.728;23.256;2023-04-02T05:12:41;94158.44;;;5.46;100.00
57801;BME280;43627;42.728;23.256;2023-04-02T05:15:13;94161.19;;;6.98;100.00
57801;BME280;43627;42.728;23.256;2023-04-02T05:20:33;94146.44;;;9.57;83.34
57801;BME280;43627;42.728;23.256;2023-04-02T05:23:36;94165.03;;;11.29;68.98
57801;BME280;43627;42.728;23.256;2023-04-02T05:26:49;94175.25;;;12.25;59.16
57801;BME280;43627;42.728;23.256;2023-04-02T05:29:22;94175.63;;;12.61;57.09
57801;BME280;43627;42.728;23.256;2023-04-02T05:32:04;94172.69;;;13.26;54.60
57801;BME280;43627;42.728;23.256;2023-04-02T05:34:36;94173.22;;;13.47;53.88
57801;BME280;43627;42.728;23.256;2023-04-02T05:37:04;94174.03;;;14.11;52.14
57801;BME280;43627;42.728;23.256;2023-04-02T05:39:32;94183.59;;;13.93;52.48
57801;BME280;43627;42.728;23.256;2023-04-02T05:42:02;94188.75;;;14.14;50.96
57801;BME280;43627;42.728;23.256;2023-04-02T05:44:35;94185.13;;;13.66;51.73
57801;BME280;43627;42.728;23.256;2023-04-02T05:47:11;94140.59;;;12.93;52.63
57801;BME280;43627;42.728;23.256;2023-04-02T05:52:41;94193.00;;;12.52;55.24
57801;BME280;43627;42.728;23.256;2023-04-02T05:57:48;94206.19;;;11.94;59.75
57801;BME280;43627;42.728;23.256;2023-04-02T06:03:18;94189.09;;;12.11;60.57
57801;BME280;43627;42.728;23.256;2023-04-02T06:05:50;94201.50;;;12.06;61.30
57801;BME280;43627;42.728;23.256;2023-04-02T06:08:24;94201.81;;;12.14;61.64
57801;BME280;43627;42.728;23.256;2023-04-02T06:11:04;94200.59;;;12.26;60.03
57801;BME280;43627;42.728;23.256;2023-04-02T06:13:33;94201.91;;;12.42;60.27
57801;BME280;43627;42.728;23.256;2023-04-02T06:16:00;94202.47;;;12.68;59.44
57801;BME280;43627;42.728;23.256;2023-04-02T06:18:34;94205.66;;;12.44;60.43
57801;BME280;43627;42.728;23.256;2023-04-02T06:21:03;94202.22;;;12.61;59.20
57801;BME280;43627;42.728;23.256;2023-04-02T06:23:46;94201.19;;;12.52;57.19
57801;BME280;43627;42.728;23.256;2023-04-02T06:26:40;94206.66;;;12.58;57.52
57801;BME280;43627;42.728;23.256;2023-04-02T06:29:17;94200.47;;;12.63;57.48
57801;BME280;43627;42.728;23.256;2023-04-02T06:31:49;94202.66;;;12.48;55.78
57801;BME280;43627;42.728;23.256;2023-04-02T06:34:23;94196.13;;;12.23;56.76
57801;BME280;43627;42.728;23.256;2023-04-02T06:36:54;94197.13;;;12.31;58.09
57801;BME280;43627;42.728;23.256;2023-04-02T06:39:24;94186.50;;;12.50;57.68
57801;BME280;43627;42.728;23.256;2023-04-02T06:41:59;94197.28;;;12.81;55.72
57801;BME280;43627;42.728;23.256;2023-04-02T06:44:33;94197.94;;;12.48;55.21
57801;BME280;43627;42.728;23.256;2023-04-02T06:47:06;94200.19;;;12.50;54.99
57801;BME280;43627;42.728;23.256;2023-04-02T06:49:41;94204.19;;;12.60;55.35
57801;BME280;43627;42.728;23.256;2023-04-02T06:52:25;94206.94;;;12.66;54.70
57801;BME280;43627;42.728;23.256;2023-04-02T06:54:53;94214.41;;;12.65;55.60
57801;BME280;43627;42.728;23.256;2023-04-02T06:57:20;94214.44;;;12.87;54.61
57801;BME280;43627;42.728;23.256;2023-04-02T06:59:47;94207.50;;;12.92;55.02
57801;BME280;43627;42.728;23.256;2023-04-02T07:04:46;94219.75;;;13.25;53.66
57801;BME280;43627;42.728;23.256;2023-04-02T07:07:14;94222.75;;;13.32;52.66
57801;BME280;43627;42.728;23.256;2023-04-02T07:09:40;94225.97;;;13.42;51.91
57801;BME280;43627;42.728;23.256;2023-04-02T07:12:12;94221.72;;;13.19;51.43
57801;BME280;43627;42.728;23.256;2023-04-02T07:14:38;94219.97;;;13.10;51.51
57801;BME280;43627;42.728;23.256;2023-04-02T07:17:05;94216.47;;;13.15;52.07
57801;BME280;43627;42.728;23.256;2023-04-02T07:19:32;94221.63;;;12.74;52.82
57801;BME280;43627;42.728;23.256;2023-04-02T07:21:58;94225.88;;;12.86;53.68
57801;BME280;43627;42.728;23.256;2023-04-02T07:24:25;94226.16;;;13.05;51.16
57801;BME280;43627;42.728;23.256;2023-04-02T07:26:52;94221.97;;;13.26;49.91
57801;BME280;43627;42.728;23.256;2023-04-02T07:29:18;94232.19;;;13.26;49.10
57801;BME280;43627;42.728;23.256;2023-04-02T07:31:45;94224.91;;;12.89;49.60
57801;BME280;43627;42.728;23.256;2023-04-02T07:34:12;94230.16;;;13.09;49.59
57801;BME280;43627;42.728;23.256;2023-04-02T07:36:39;94222.00;;;13.21;50.13
57801;BME280;43627;42.728;23.256;2023-04-02T07:39:06;94215.72;;;12.92;48.95
57801;BME280;43627;42.728;23.256;2023-04-02T07:41:32;94233.13;;;13.00;49.79
57801;BME280;43627;42.728;23.256;2023-04-02T07:43:59;94229.59;;;12.72;49.69
57801;BME280;43627;42.728;23.256;2023-04-02T07:46:26;94240.75;;;12.68;50.37
57801;BME280;43627;42.728;23.256;2023-04-02T07:48:52;94244.31;;;12.91;50.21
57801;BME280;43627;42.728;23.256;2023-04-02T07:51:21;94238.09;;;12.96;50.88
57801;BME280;43627;42.728;23.256;2023-04-02T07:53:49;94234.84;;;12.98;50.74
57801;BME280;43627;42.728;23.256;2023-04-02T07:56:18;94242.56;;;12.82;51.85
57801;BME280;43627;42.728;23.256;2023-04-02T07:58:45;94242.78;;;12.79;52.17
57801;BME280;43627;42.728;23.256;2023-04-02T08:01:18;94240.19;;;12.42;52.58
57801;BME280;43627;42.728;23.256;2023-04-02T08:03:46;94245.22;;;12.60;52.65
57801;BME280;43627;42.728;23.256;2023-04-02T08:06:13;94221.59;;;12.51;52.99
57801;BME280;43627;42.728;23.256;2023-04-02T08:08:40;94249.56;;;12.24;53.13
57801;BME280;43627;42.728;23.256;2023-04-02T08:11:07;94246.81;;;12.24;53.26
57801;BME280;43627;42.728;23.256;2023-04-02T08:13:34;94254.72;;;12.16;53.78
57801;BME280;43627;42.728;23.256;2023-04-02T08:16:02;94244.09;;;12.29;52.78
57801;BME280;43627;42.728;23.256;2023-04-02T08:18:29;94254.13;;;12.49;54.22
57801;BME280;43627;42.728;23.256;2023-04-02T08:20:57;94254.72;;;12.76;52.65
57801;BME280;43627;42.728;23.256;2023-04-02T08:23:24;94234.34;;;12.88;52.27
57801;BME280;43627;42.728;23.256;2023-04-02T08:25:51;94252.56;;;13.13;51.87
57801;BME280;43627;42.728;23.256;2023-04-02T08:28:19;94248.88;;;13.28;50.41
57801;BME280;43627;42.728;23.256;2023-04-02T08:30:46;94250.63;;;13.42;50.74
57801;BME280;43627;42.728;23.256;2023-04-02T08:33:17;94257.59;;;13.77;50.98
57801;BME280;43627;42.728;23.256;2023-04-02T08:35:46;94256.59;;;13.63;49.30
57801;BME280;43627;42.728;23.256;2023-04-02T08:38:15;94260.34;;;13.65;49.36
57801;BME280;43627;42.728;23.256;2023-04-02T08:40:47;94251.13;;;13.57;50.88
57801;BME280;43627;42.728;23.256;2023-04-02T08:49:11;94251.06;;;14.13;49.20
57801;BME280;43627;42.728;23.256;2023-04-02T08:51:39;94258.69;;;14.43;48.87
57801;BME280;43627;42.728;23.256;2023-04-02T08:57:06;94257.44;;;14.44;47.21
57801;BME280;43627;42.728;23.256;2023-04-02T08:59:37;94249.97;;;14.50;46.97
57801;BME280;43627;42.728;23.256;2023-04-02T09:02:28;94259.94;;;14.42;46.40
57801;BME280;43627;42.728;23.256;2023-04-02T09:04:59;94235.28;;;14.36;46.94
57801;BME280;43627;42.728;23.256;2023-04-02T09:07:28;94257.38;;;14.66;48.28
57801;BME280;43627;42.728;23.256;2023-04-02T09:09:54;94255.94;;;14.60;46.91
57801;BME280;43627;42.728;23.256;2023-04-02T09:12:26;94255.53;;;14.22;47.95
57801;BME280;43627;42.728;23.256;2023-04-02T09:17:37;94264.19;;;14.48;47.47
57801;BME280;43627;42.728;23.256;2023-04-02T09:20:22;94265.47;;;14.19;47.46
57801;BME280;43627;42.728;23.256;2023-04-02T09:22:50;94257.56;;;14.05;46.71
57801;BME280;43627;42.728;23.256;2023-04-02T09:25:27;94261.56;;;13.64;47.19
57801;BME280;43627;42.728;23.256;2023-04-02T09:27:57;94242.84;;;13.01;48.57
57801;BME280;43627;42.728;23.256;2023-04-02T09:35:25;94254.84;;;13.77;47.52
57801;BME280;43627;42.728;23.256;2023-04-02T09:38:25;94245.34;;;14.00;46.08
57801;BME280;43627;42.728;23.256;2023-04-02T09:43:33;94248.97;;;14.42;46.89
57801;BME280;43627;42.728;23.256;2023-04-02T09:51:24;94239.34;;;14.07;46.16
57801;BME280;43627;42.728;23.256;2023-04-02T09:56:35;94231.78;;;14.36;45.38
57801;BME280;43627;42.728;23.256;2023-04-02T09:59:06;94228.66;;;14.73;44.30
57801;BME280;43627;42.728;23.256;2023-04-02T10:04:38;94225.66;;;15.18;43.55
57801;BME280;43627;42.728;23.256;2023-04-02T10:07:36;94235.34;;;14.89;44.18
57801;BME280;43627;42.728;23.256;2023-04-02T10:16:00;94223.59;;;15.59;43.68
57801;BME280;43627;42.728;23.256;2023-04-02T10:18:37;94228.75;;;15.98;42.13
57801;BME280;43627;42.728;23.256;2023-04-02T10:21:07;94210.66;;;16.33;42.10
57801;BME280;43627;42.728;23.256;2023-04-02T10:23:35;94202.09;;;16.37;41.58
57801;BME280;43627;42.728;23.256;2023-04-02T10:45:55;94217.81;;;14.45;44.32
57801;BME280;43627;42.728;23.256;2023-04-02T10:51:15;94214.91;;;15.20;44.02
57801;BME280;43627;42.728;23.256;2023-04-02T10:53:57;94208.88;;;15.27;44.11
57801;BME280;43627;42.728;23.256;2023-04-02T10:56:28;94208.50;;;15.41;42.54
57801;BME280;43627;42.728;23.256;2023-04-02T10:59:26;94206.50;;;15.72;42.22
57801;BME280;43627;42.728;23.256;2023-04-02T11:01:55;94203.16;;;16.09;41.51
57801;BME280;43627;42.728;23.256;2023-04-02T11:04:26;94210.03;;;15.97;42.36
57801;BME280;43627;42.728;23.256;2023-04-02T11:06:58;94182.94;;;15.82;40.88
57801;BME280;43627;42.728;23.256;2023-04-02T11:09:42;94208.25;;;16.24;41.13
57801;BME280;43627;42.728;23.256;2023-04-02T11:12:54;94201.47;;;16.49;38.79
57801;BME280;43627;42.728;23.256;2023-04-02T11:15:23;94198.69;;;16.31;38.48
57801;BME280;43627;42.728;23.256;2023-04-02T11:17:50;94201.81;;;16.40;39.17
57801;BME280;43627;42.728;23.256;2023-04-02T11:23:19;94201.09;;;16.15;39.96
57801;BME280;43627;42.728;23.256;2023-04-02T11:25:47;94193.56;;;16.40;39.38
57801;BME280;43627;42.728;23.256;2023-04-02T11:28:27;94199.13;;;16.35;39.24
57801;BME280;43627;42.728;23.256;2023-04-02T11:30:55;94198.41;;;16.10;39.08
57801;BME280;43627;42.728;23.256;2023-04-02T11:39:09;94184.66;;;16.53;38.88
57801;BME280;43627;42.728;23.256;2023-04-02T11:42:03;94189.44;;;17.09;39.74
57801;BME280;43627;42.728;23.256;2023-04-02T11:44:29;94187.88;;;16.95;37.92
57801;BME280;43627;42.728;23.256;2023-04-02T11:50:27;94181.22;;;17.03;38.22
57801;BME280;43627;42.728;23.256;2023-04-02T11:52:58;94177.94;;;16.67;37.84
57801;BME280;43627;42.728;23.256;2023-04-02T11:55:33;94170.78;;;16.21;37.98
57801;BME280;43627;42.728;23.256;2023-04-02T12:10:04;94187.19;;;16.08;37.99
57801;BME280;43627;42.728;23.256;2023-04-02T12:12:35;94181.22;;;15.79;38.59
57801;BME280;43627;42.728;23.256;2023-04-02T12:15:27;94182.38;;;15.89;38.64
57801;BME280;43627;42.728;23.256;2023-04-02T12:18:03;94176.81;;;16.38;38.19
57801;BME280;43627;42.728;23.256;2023-04-02T12:20:31;94189.00;;;15.99;37.85
57801;BME280;43627;42.728;23.256;2023-04-02T12:22:58;94177.69;;;15.84;38.13
57801;BME280;43627;42.728;23.256;2023-04-02T12:25:34;94167.34;;;16.15;37.65
57801;BME280;43627;42.728;23.256;2023-04-02T12:30:36;94178.75;;;16.00;37.56
57801;BME280;43627;42.728;23.256;2023-04-02T12:33:20;94172.13;;;16.14;37.59
57801;BME280;43627;42.728;23.256;2023-04-02T12:35:55;94159.13;;;16.34;37.80
57801;BME280;43627;42.728;23.256;2023-04-02T12:38:27;94166.28;;;15.99;37.89
57801;BME280;43627;42.728;23.256;2023-04-02T12:40:57;94170.63;;;16.13;37.60
57801;BME280;43627;42.728;23.256;2023-04-02T12:43:29;94161.66;;;16.32;37.08
57801;BME280;43627;42.728;23.256;2023-04-02T12:45:57;94157.88;;;16.53;36.78
57801;BME280;43627;42.728;23.256;2023-04-02T12:48:25;94148.81;;;16.59;36.80
57801;BME280;43627;42.728;23.256;2023-04-02T12:50:53;94152.75;;;16.44;37.25
57801;BME280;43627;42.728;23.256;2023-04-02T12:53:30;94156.38;;;16.34;36.70
57801;BME280;43627;42.728;23.256;2023-04-02T12:55:57;94148.66;;;16.32;37.14
57801;BME280;43627;42.728;23.256;2023-04-02T12:58:40;94154.03;;;16.81;37.22
57801;BME280;43627;42.728;23.256;2023-04-02T13:01:20;94145.44;;;17.03;36.50
57801;BME280;43627;42.728;23.256;2023-04-02T13:06:29;94147.03;;;16.42;35.86
57801;BME280;43627;42.728;23.256;2023-04-02T13:08:59;94143.94;;;16.27;36.25
57801;BME280;43627;42.728;23.256;2023-04-02T13:11:38;94143.31;;;16.40;36.67
57801;BME280;43627;42.728;23.256;2023-04-02T13:14:12;94140.06;;;16.79;35.89
57801;BME280;43627;42.728;23.256;2023-04-02T13:16:42;94142.56;;;16.77;38.46
57801;BME280;43627;42.728;23.256;2023-04-02T13:21:43;94141.81;;;16.57;36.52
57801;BME280;43627;42.728;23.256;2023-04-02T13:24:23;94122.63;;;16.33;35.22
57801;BME280;43627;42.728;23.256;2023-04-02T13:26:56;94145.09;;;16.75;34.84
57801;BME280;43627;42.728;23.256;2023-04-02T13:29:30;94143.38;;;16.91;34.36
57801;BME280;43627;42.728;23.256;2023-04-02T13:32:09;94125.72;;;16.99;34.58
57801;BME280;43627;42.728;23.256;2023-04-02T13:34:37;94124.78;;;16.97;34.07
57801;BME280;43627;42.728;23.256;2023-04-02T13:37:04;94127.94;;;17.01;33.87
57801;BME280;43627;42.728;23.256;2023-04-02T13:39:30;94133.50;;;16.82;33.88
57801;BME280;43627;42.728;23.256;2023-04-02T13:42:02;94123.94;;;16.64;34.92
57801;BME280;43627;42.728;23.256;2023-04-02T13:44:31;94126.44;;;16.49;34.78
57801;BME280;43627;42.728;23.256;2023-04-02T13:46:59;94119.19;;;16.65;35.08
57801;BME280;43627;42.728;23.256;2023-04-02T13:49:27;94129.81;;;16.93;34.71
57801;BME280;43627;42.728;23.256;2023-04-02T13:51:56;94128.78;;;16.77;34.95
57801;BME280;43627;42.728;23.256;2023-04-02T13:54:32;94117.03;;;16.39;35.19
57801;BME280;43627;42.728;23.256;2023-04-02T13:57:02;94129.16;;;16.11;35.36
57801;BME280;43627;42.728;23.256;2023-04-02T13:59:29;94120.69;;;15.60;35.87
57801;BME280;43627;42.728;23.256;2023-04-02T14:02:00;94126.69;;;15.59;36.34
57801;BME280;43627;42.728;23.256;2023-04-02T14:04:35;94133.72;;;15.54;36.75
57801;BME280;43627;42.728;23.256;2023-04-02T14:15:14;94125.53;;;15.49;36.00
57801;BME280;43627;42.728;23.256;2023-04-02T14:20:28;94114.19;;;15.33;36.69
57801;BME280;43627;42.728;23.256;2023-04-02T14:26:48;94108.69;;;15.63;37.05
57801;BME280;43627;42.728;23.256;2023-04-02T14:32:06;94108.13;;;16.14;34.89
57801;BME280;43627;42.728;23.256;2023-04-02T14:37:43;94114.16;;;16.31;34.38
57801;BME280;43627;42.728;23.256;2023-04-02T14:40:28;94110.28;;;16.40;34.85
57801;BME280;43627;42.728;23.256;2023-04-02T14:46:11;94113.31;;;16.55;34.59
57801;BME280;43627;42.728;23.256;2023-04-02T14:48:51;94114.16;;;16.88;34.49
57801;BME280;43627;42.728;23.256;2023-04-02T14:54:08;94117.25;;;16.97;34.31
57801;BME280;43627;42.728;23.256;2023-04-02T14:56:47;94116.88;;;17.06;33.47
57801;BME280;43627;42.728;23.256;2023-04-02T15:02:02;94125.06;;;16.55;35.03
57801;BME280;43627;42.728;23.256;2023-04-02T15:04:37;94117.41;;;16.48;34.96
57801;BME280;43627;42.728;23.256;2023-04-02T15:07:16;94124.06;;;16.40;34.34
57801;BME280;43627;42.728;23.256;2023-04-02T15:09:49;94117.41;;;16.29;34.34
57801;BME280;43627;42.728;23.256;2023-04-02T15:12:21;94128.94;;;16.28;33.99
57801;BME280;43627;42.728;23.256;2023-04-02T15:15:03;94136.44;;;16.27;34.36
57801;BME280;43627;42.728;23.256;2023-04-02T15:17:33;94127.81;;;16.18;34.89
57801;BME280;43627;42.728;23.256;2023-04-02T15:20:13;94132.88;;;16.33;34.66
57801;BME280;43627;42.728;23.256;2023-04-02T15:31:14;94136.88;;;16.13;33.72
57801;BME280;43627;42.728;23.256;2023-04-02T15:33:43;94102.13;;;15.91;33.24
57801;BME280;43627;42.728;23.256;2023-04-02T15:41:40;94132.53;;;15.98;33.02
57801;BME280;43627;42.728;23.256;2023-04-02T15:44:14;94121.91;;;16.08;33.32
57801;BME280;43627;42.728;23.256;2023-04-02T15:47:00;94135.50;;;16.00;32.84
57801;BME280;43627;42.728;23.256;2023-04-02T15:52:35;94134.84;;;15.70;34.13
57801;BME280;43627;42.728;23.256;2023-04-02T15:55:25;94131.53;;;15.77;34.16
57801;BME280;43627;42.728;23.256;2023-04-02T16:03:53;94150.53;;;15.75;34.15
57801;BME280;43627;42.728;23.256;2023-04-02T16:06:29;94139.22;;;15.54;34.36
57801;BME280;43627;42.728;23.256;2023-04-02T16:11:31;94158.19;;;15.28;35.34
57801;BME280;43627;42.728;23.256;2023-04-02T16:16:49;94160.34;;;15.05;34.78
57801;BME280;43627;42.728;23.256;2023-04-02T16:19:32;94154.91;;;14.99;35.03
57801;BME280;43627;42.728;23.256;2023-04-02T16:22:23;94162.19;;;14.91;34.92
57801;BME280;43627;42.728;23.256;2023-04-02T16:25:14;94164.59;;;14.70;35.54
57801;BME280;43627;42.728;23.256;2023-04-02T16:28:35;94154.06;;;14.74;35.56
57801;BME280;43627;42.728;23.256;2023-04-02T16:31:05;94157.34;;;14.67;36.68
57801;BME280;43627;42.728;23.256;2023-04-02T16:33:59;94164.28;;;14.79;41.16
57801;BME280;43627;42.728;23.256;2023-04-02T16:36:38;94164.75;;;14.78;36.42
57801;BME280;43627;42.728;23.256;2023-04-02T16:39:33;94169.13;;;14.56;36.83
57801;BME280;43627;42.728;23.256;2023-04-02T16:42:10;94169.44;;;14.42;37.03
57801;BME280;43627;42.728;23.256;2023-04-02T16:50:38;94163.94;;;13.78;38.63
57801;BME280;43627;42.728;23.256;2023-04-02T16:53:16;94168.44;;;13.76;38.84
57801;BME280;43627;42.728;23.256;2023-04-02T17:01:45;94174.97;;;13.22;40.56
57801;BME280;43627;42.728;23.256;2023-04-02T17:04:21;94191.59;;;13.13;41.07
57801;BME280;43627;42.728;23.256;2023-04-02T17:09:20;94195.53;;;12.84;42.36
57801;BME280;43627;42.728;23.256;2023-04-02T17:11:55;94189.28;;;12.67;42.34
57801;BME280;43627;42.728;23.256;2023-04-02T17:14:34;94190.00;;;12.56;42.94
57801;BME280;43627;42.728;23.256;2023-04-02T17:17:03;94201.19;;;12.52;43.02